Date,TemperatureHighF,TemperatureAvgF,TemperatureLowF,DewpointHighF,DewpointAvgF,DewpointLowF,HumidityHigh,HumidityAvg,HumidityLow,PressureMaxIn,PressureMinIn,WindSpeedMaxMPH,WindSpeedAvgMPH,GustSpeedMaxMPH,PrecipitationSumIn
2013-1-1,36,30,24,34,28,20,96,91,84,30.22,30.01,12,3,12,0.00
2013-1-2,31,24,17,20,18,15,91,78,58,30.29,30.19,5,1,5,0.00
2013-1-3,41,29,20,31,24,16,92,81,61,30.41,30.23,8,1,8,0.00
2013-1-4,44,34,26,35,29,24,94,84,63,30.45,30.34,12,2,12,0.00
2013-1-5,44,37,29,36,32,25,90,81,71,30.36,30.18,13,3,13,0.00
2013-1-6,41,35,26,36,30,22,94,82,64,30.38,30.12,17,5,17,0.00
2013-1-7,46,34,23,31,26,20,92,75,55,30.45,30.19,9,2,9,0.00
2013-1-8,57,43,32,38,32,25,81,67,45,30.25,30.15,15,2,15,0.00
2013-1-9,57,50,45,48,43,37,90,75,64,30.38,30.19,6,1,6,0.02
2013-1-10,66,55,45,62,53,38,97,92,67,30.38,29.82,28,7,28,0.93
2013-1-11,63,57,53,58,52,49,95,84,65,29.95,29.81,21,7,21,0.01
2013-1-12,69,62,48,66,60,46,98,95,86,29.91,29.63,17,4,17,1.05
2013-1-13,47,33,25,45,31,21,96,92,85,30.30,29.71,20,3,20,1.19
2013-1-14,28,24,21,22,20,16,87,82,77,30.43,30.29,0,0,0,0.00
2013-1-15,31,27,22,26,23,20,93,87,74,30.33,30.07,9,0,9,0.00
2013-1-16,34,31,29,28,27,25,90,84,73,30.15,30.05,6,1,6,0.02
2013-1-17,46,34,26,37,28,23,91,79,68,30.47,30.09,18,3,18,0.02
2013-1-18,48,36,24,33,27,21,92,72,54,30.53,30.25,12,2,12,0.01
2013-1-19,41,39,38,31,29,28,72,67,62,30.26,30.22,13,6,13,0.00
2013-1-20,45,38,29,30,21,15,70,51,32,30.27,30.18,9,2,9,0.00
2013-1-21,37,28,23,20,15,7,71,57,42,30.34,30.20,16,5,16,0.00
2013-1-22,26,22,18,10,3,-2,66,45,32,30.46,30.34,8,1,8,0.00
2013-1-23,47,32,20,32,22,9,85,65,49,30.36,30.13,15,3,15,0.00
2013-1-24,36,29,22,28,15,10,75,56,43,30.53,30.22,17,4,17,0.00
2013-1-25,42,32,28,31,25,11,90,74,43,30.23,30.08,12,2,12,0.01
2013-1-26,46,36,28,30,26,21,91,70,46,30.35,30.22,6,1,6,0.00
2013-1-27,53,40,30,48,36,22,94,85,70,30.29,30.05,12,4,12,0.15
2013-1-28,64,58,53,60,54,48,95,89,80,30.06,29.96,15,5,15,0.10
2013-1-29,71,64,54,63,59,52,94,84,71,29.97,29.37,31,9,31,0.70
2013-1-30,56,46,33,53,41,24,97,84,68,29.91,29.38,33,12,33,0.72
2013-1-31,43,33,21,32,24,9,92,70,59,30.32,29.92,25,12,25,0.02
2013-2-1,29,21,13,18,10,4,72,62,48,30.52,30.30,18,4,18,0.00
2013-2-2,44,34,26,32,26,17,83,71,61,30.29,30.07,18,5,18,0.00
2013-2-3,45,37,31,33,28,22,87,70,45,30.14,29.99,20,5,20,0.00
2013-2-4,47,40,31,40,33,24,93,78,54,30.06,29.84,20,6,20,0.05
2013-2-5,56,42,30,45,37,28,95,83,59,30.06,29.89,16,3,16,0.00
2013-2-6,53,42,31,38,33,28,94,70,46,30.23,30.04,8,2,8,0.00
2013-2-7,65,53,41,54,44,32,95,73,55,30.05,29.83,16,4,16,0.28
2013-2-8,50,39,34,48,34,28,93,81,71,30.33,29.90,18,5,18,0.00
2013-2-9,47,39,32,35,31,27,84,73,59,30.35,30.01,10,2,10,0.00
2013-2-10,57,52,44,54,46,35,94,81,60,30.01,29.66,20,8,20,0.45
2013-2-11,55,47,38,51,34,30,90,63,46,30.11,29.83,22,8,22,0.00
2013-2-12,49,42,31,36,32,29,94,69,50,30.12,29.83,6,1,6,0.02
2013-2-13,47,40,36,41,37,34,95,88,73,29.92,29.80,16,4,16,0.27
2013-2-14,60,47,38,46,40,34,93,77,55,30.00,29.88,17,7,17,0.00
2013-2-15,46,40,28,35,27,16,82,62,32,30.19,30.00,17,3,17,0.00
2013-2-16,39,30,25,21,16,7,79,56,30,30.22,30.15,15,3,15,0.00
2013-2-17,50,37,25,29,24,14,84,61,38,30.22,30.01,10,3,10,0.00
2013-2-18,59,48,40,48,40,27,94,75,53,30.00,29.62,33,9,33,0.70
2013-2-19,47,38,30,40,22,11,89,54,27,30.26,29.84,25,11,25,0.00
2013-2-20,33,28,25,20,16,12,74,59,51,30.36,30.24,12,2,12,0.00
2013-2-21,34,30,26,33,25,19,95,81,64,30.25,29.79,12,2,12,0.42
2013-2-22,44,37,32,40,34,27,96,89,77,30.05,29.79,20,7,20,0.03
2013-2-23,46,35,26,30,26,23,87,72,49,30.05,29.95,12,2,12,0.00
2013-2-24,52,39,27,31,27,22,87,64,42,30.11,29.97,9,1,9,0.00
2013-2-25,57,46,36,40,31,27,88,56,35,29.99,29.38,12,4,12,0.17
2013-2-26,49,43,39,48,40,34,96,89,82,29.66,29.28,22,10,22,0.50
2013-2-27,40,38,34,35,32,30,91,82,69,29.88,29.66,22,11,22,0.01
2013-2-28,39,36,33,32,30,27,91,81,74,30.07,29.88,15,6,15,0.00
2013-3-1,37,33,31,34,31,28,95,92,87,30.11,30.02,12,4,12,0.09
2013-3-2,33,31,30,28,25,18,91,79,59,30.19,30.08,16,6,16,0.01
2013-3-3,43,33,23,28,23,18,86,66,44,30.19,30.05,12,3,12,0.01
2013-3-4,59,46,36,42,32,25,84,58,39,30.06,29.74,18,5,18,0.06
2013-3-5,47,40,34,44,34,21,95,82,57,30.06,29.70,31,10,31,0.16
2013-3-6,45,36,28,32,26,24,83,69,54,30.31,30.06,26,8,26,0.00
2013-3-7,48,36,24,32,28,21,92,73,53,30.39,30.29,6,1,6,0.00
2013-3-8,50,37,29,31,28,26,90,73,47,30.39,30.19,7,1,7,0.00
2013-3-9,70,54,43,39,34,29,65,48,30,30.19,29.88,14,4,14,0.00
2013-3-10,67,57,49,54,47,37,96,71,47,29.89,29.65,23,7,23,0.49
2013-3-11,51,41,36,50,37,29,96,84,74,29.98,29.69,20,9,20,0.00
2013-3-12,48,36,30,30,28,26,91,77,43,30.16,29.98,15,3,15,0.00
2013-3-13,46,38,32,28,22,19,68,54,37,30.39,30.16,22,6,22,0.00
2013-3-14,51,39,27,31,25,20,76,60,45,30.39,30.09,10,2,10,0.00
2013-3-15,75,58,40,53,44,28,81,61,45,30.09,29.73,22,7,22,0.00
2013-3-16,70,58,44,55,47,38,81,67,54,29.93,29.70,23,10,23,0.00
2013-3-17,44,41,38,42,38,36,96,92,81,30.03,29.68,12,4,12,0.48
2013-3-18,52,45,38,48,42,36,97,90,68,29.96,29.61,18,5,18,0.77
2013-3-19,52,43,33,38,24,15,92,52,23,30.17,29.97,12,2,12,0.00
2013-3-20,46,38,29,32,25,16,81,60,42,30.20,30.06,18,5,18,0.00
2013-3-21,42,33,22,25,18,14,81,55,36,30.10,29.95,12,2,12,0.00
2013-3-22,43,38,34,29,26,22,67,60,53,30.00,29.93,8,2,8,0.00
2013-3-23,54,46,40,42,34,28,88,62,50,29.96,29.70,12,2,12,0.01
2013-3-24,46,40,33,42,37,30,95,90,82,29.76,29.41,30,9,30,0.14
2013-3-25,38,34,32,31,28,26,93,79,64,30.16,29.77,26,13,26,0.00
2013-3-26,48,36,30,35,28,24,92,75,49,30.33,30.16,13,4,13,0.08
2013-3-27,51,40,27,32,28,23,88,64,40,30.39,30.27,13,2,13,0.00
2013-3-28,60,49,40,40,34,30,74,57,39,30.34,30.21,7,2,7,0.01
2013-3-29,58,50,45,52,46,38,95,84,61,30.23,30.13,10,2,10,0.66
2013-3-30,55,49,44,49,47,42,97,93,78,30.16,29.88,9,2,9,0.42
2013-3-31,66,55,49,56,50,47,98,86,54,29.93,29.83,12,3,12,0.00
2013-4-1,56,49,40,49,36,28,92,63,42,30.16,29.86,12,3,12,0.00
2013-4-2,46,41,36,29,24,19,70,52,35,30.29,30.15,7,1,7,0.00
2013-4-3,53,44,33,28,24,20,67,47,32,30.32,30.16,10,2,10,0.00
2013-4-4,56,48,42,40,30,24,84,52,38,30.16,29.97,7,1,7,0.00
2013-4-5,71,54,36,41,38,32,95,59,27,30.11,30.00,15,2,15,0.00
2013-4-6,76,62,50,45,41,38,65,48,30,30.04,29.82,18,5,18,0.00
2013-4-7,74,66,61,59,53,44,78,64,51,29.93,29.85,21,7,21,0.00
2013-4-8,76,67,60,61,56,51,79,69,54,29.88,29.79,22,6,22,0.00
2013-4-9,80,72,63,66,62,55,81,72,61,29.95,29.80,15,5,15,0.00
2013-4-10,83,75,64,70,65,61,94,72,57,29.86,29.62,25,6,25,0.66
2013-4-11,65,54,44,64,53,37,97,94,74,29.74,29.54,21,6,21,0.97
2013-4-12,56,44,38,44,38,34,91,78,59,29.84,29.73,24,6,24,0.00
2013-4-14,76,69,61,56,51,47,71,53,39,29.78,29.70,17,7,17,0.00
2013-4-15,81,69,59,64,58,51,82,69,51,29.88,29.76,14,4,14,0.00
2013-4-16,87,73,63,72,66,60,92,79,56,30.00,29.83,18,4,18,0.00
2013-4-17,84,73,59,74,66,57,95,79,62,30.02,29.76,17,3,17,0.02
2013-4-18,78,70,44,67,62,43,95,78,57,29.77,29.56,24,8,24,1.55
2013-4-19,53,45,41,42,36,32,94,70,51,30.06,29.70,23,9,23,0.05
2013-4-20,63,49,34,42,36,32,95,64,36,30.28,30.06,12,1,12,0.00
2013-4-21,65,54,41,41,36,33,73,53,32,30.37,30.20,5,1,5,0.00
2013-4-22,75,60,43,52,44,35,78,56,36,30.22,29.98,13,2,13,0.00
2013-4-23,74,64,50,62,55,47,90,71,59,30.01,29.79,20,4,20,0.08
2013-4-24,51,45,39,46,40,36,94,83,59,30.25,29.87,22,4,22,0.21
2013-4-25,68,52,36,46,41,34,94,70,36,30.34,30.23,13,2,13,0.00
2013-4-26,52,51,49,50,46,41,95,84,69,30.39,30.21,10,1,10,0.46
2013-4-27,60,55,50,60,54,49,97,96,95,30.26,29.86,6,1,6,0.50
2013-4-28,61,56,53,57,54,52,97,93,82,29.92,29.85,13,4,13,0.01
2013-4-29,76,62,49,62,55,48,98,81,56,29.97,29.83,12,2,12,0.00
2013-4-30,84,70,57,64,57,53,88,67,41,29.92,29.84,10,2,10,0.00
2013-5-1,83,70,58,70,61,52,91,74,50,30.03,29.92,10,1,10,0.05
2013-5-2,74,66,60,63,59,56,94,79,61,30.09,29.97,7,1,7,0.10
2013-5-3,68,56,42,63,54,41,97,93,75,29.97,29.74,16,4,16,1.54
2013-5-4,53,45,39,43,41,38,97,86,65,29.94,29.83,12,2,12,0.17
2013-5-5,59,51,43,54,48,41,96,91,80,29.92,29.80,10,2,10,0.02
2013-5-6,64,58,53,58,55,51,95,90,80,29.89,29.79,10,2,10,0.00
2013-5-7,73,62,53,62,57,52,97,84,63,29.97,29.88,7,1,7,0.00
2013-5-8,83,70,57,63,59,54,96,71,38,30.01,29.92,13,2,13,0.00
2013-5-9,81,72,63,66,61,58,86,69,50,29.98,29.85,20,5,20,0.00
2013-5-10,77,68,61,70,63,55,97,86,67,29.93,29.78,17,4,17,0.44
2013-5-11,76,62,54,56,52,37,92,70,42,30.08,29.91,15,3,15,0.00
2013-5-12,68,55,44,44,37,28,88,53,25,30.18,30.08,13,3,13,0.00
2013-5-13,74,58,40,47,41,33,93,59,27,30.23,30.07,12,2,12,0.00
2013-5-14,88,69,56,63,55,43,81,63,40,30.07,29.88,17,6,17,0.00
2013-5-15,86,75,66,66,59,55,71,58,43,29.99,29.85,18,7,18,0.00
2013-5-16,85,74,66,66,62,58,87,68,48,29.93,29.84,13,3,13,0.00
2013-5-17,75,68,63,68,64,61,95,88,77,29.93,29.86,10,1,10,0.09
2013-5-18,87,74,64,70,66,63,96,79,50,29.95,29.85,9,1,9,0.00
2013-5-19,89,79,71,76,71,67,97,76,54,29.87,29.76,15,3,15,0.00
2013-5-20,90,80,71,73,70,67,92,73,49,29.88,29.74,18,5,18,0.00
2013-5-21,78,69,65,71,66,63,96,90,74,29.87,29.71,40,4,40,0.80
2013-5-22,80,70,63,67,64,62,97,82,58,29.80,29.67,20,6,20,0.05
2013-5-23,76,67,57,64,58,51,93,74,54,30.12,29.81,18,5,18,0.00
2013-5-24,72,59,47,51,46,43,91,66,37,30.33,30.12,8,1,8,0.00
2013-5-25,78,64,48,57,52,46,94,67,38,30.30,30.10,6,1,6,0.00
2013-5-26,86,72,57,63,59,54,91,67,40,30.15,30.01,9,1,9,0.00
2013-5-27,86,75,64,70,63,57,82,67,51,30.02,29.85,18,3,18,0.00
2013-5-28,88,78,70,71,66,60,86,68,51,29.95,29.86,20,4,20,0.00
2013-5-29,89,78,66,70,64,59,81,64,45,29.99,29.85,17,3,17,0.00
2013-5-30,86,78,73,72,69,64,83,73,58,29.94,29.83,17,3,17,0.01
2013-5-31,82,75,68,74,71,67,96,87,73,29.92,29.76,12,3,12,0.43
2013-6-1,77,68,64,72,66,62,98,93,72,29.92,29.71,18,3,18,2.73
2013-6-2,77,70,64,66,63,60,96,81,61,29.94,29.85,13,3,13,0.00
2013-6-3,76,66,58,61,58,56,95,77,51,30.01,29.91,9,1,9,0.00
2013-6-4,82,69,55,66,60,53,93,74,50,30.02,29.91,6,0,6,0.00
2013-6-5,86,75,63,69,64,61,92,72,46,29.93,29.75,8,0,8,0.14
2013-6-6,83,74,67,69,66,63,97,78,54,29.78,29.70,10,2,10,0.07
2013-6-7,82,72,64,65,61,58,87,69,49,29.84,29.74,12,3,12,0.00
2013-6-8,84,71,58,66,61,54,96,73,44,29.93,29.83,10,1,10,0.00
2013-6-9,76,70,64,72,66,59,96,85,71,29.93,29.75,10,1,10,0.20
2013-6-10,87,74,66,71,67,64,98,81,49,29.87,29.76,16,5,16,0.02
2013-6-11,95,80,64,79,71,62,97,75,54,29.94,29.84,10,2,10,0.00
2013-6-12,95,86,76,78,74,71,87,69,51,29.94,29.76,20,7,20,0.00
2013-6-13,83,78,66,73,68,63,89,72,56,29.90,29.75,20,7,20,0.00
2013-6-14,83,72,59,65,61,57,95,71,47,30.02,29.89,8,1,8,0.00
2013-6-15,88,75,62,70,65,60,94,73,48,30.05,29.91,9,1,9,0.00
2013-6-16,88,77,69,76,70,65,93,80,61,29.96,29.87,8,1,8,0.00
2013-6-17,90,74,67,76,70,66,97,90,62,29.89,29.83,16,1,16,1.15
2013-6-18,88,75,65,74,68,64,97,82,56,29.94,29.78,28,2,28,0.27
2013-6-19,88,75,64,75,69,63,97,82,50,29.99,29.90,8,0,8,0.29
2013-6-20,92,80,67,76,71,66,97,76,48,30.07,29.99,7,1,7,0.00
2013-6-21,91,81,71,76,72,68,90,75,55,30.10,30.00,12,2,12,0.00
2013-6-22,91,80,68,76,70,64,92,75,53,30.08,29.96,20,2,20,0.02
2013-6-23,89,78,68,75,70,65,93,79,59,30.04,29.92,10,1,10,0.01
2013-6-24,93,80,72,78,73,68,93,81,55,30.06,29.94,14,2,14,0.00
2013-6-25,91,83,75,78,74,71,91,77,63,29.97,29.81,9,2,9,0.00
2013-6-26,92,82,74,78,74,70,93,78,60,29.88,29.68,21,5,21,0.10
2013-6-27,95,83,74,79,74,68,97,76,43,29.81,29.73,12,2,12,0.01
2013-6-28,92,81,71,77,69,58,95,69,41,29.79,29.62,15,3,15,0.00
2013-6-29,88,75,65,68,63,59,88,69,45,29.66,29.57,20,5,20,0.00
2013-6-30,79,68,62,69,64,59,96,88,65,29.79,29.64,12,2,12,0.15
2013-7-1,71,67,64,67,65,63,96,93,81,29.86,29.75,13,2,13,0.08
2013-7-2,75,68,64,68,64,61,97,89,74,29.99,29.82,14,5,14,0.00
2013-7-3,84,71,64,69,64,62,94,82,54,30.06,29.97,8,1,8,0.00
2013-7-4,83,73,62,71,66,61,97,82,58,30.03,29.93,6,0,6,0.00
2013-7-5,84,75,65,71,68,64,97,82,62,30.03,29.94,5,0,5,0.00
2013-7-6,88,76,67,74,69,62,95,82,56,30.02,29.90,13,1,13,0.00
2013-7-7,90,82,64,77,72,62,93,73,54,30.03,29.97,6,1,6,0.00
2013-7-8,92,81,71,78,73,69,96,78,50,30.08,29.98,7,1,7,0.00
2013-7-9,93,81,74,81,75,72,95,82,61,30.03,29.91,8,2,8,0.00
2013-7-10,91,83,75,79,75,72,91,78,54,29.94,29.83,12,2,12,0.00
2013-7-11,82,75,73,75,72,71,96,92,76,29.92,29.86,4,0,4,0.00
2013-7-12,83,74,63,64,61,58,89,65,45,30.02,29.95,4,1,4,0.00
2013-7-13,84,72,59,66,62,57,95,72,47,30.00,29.93,4,0,4,0.00
2013-7-14,88,74,65,76,70,61,97,87,62,30.07,29.96,9,1,9,0.41
2013-7-15,88,79,72,79,74,71,97,85,67,30.17,30.06,7,1,7,0.01
2013-7-16,93,80,70,79,74,69,97,81,57,30.24,30.16,5,0,5,0.00
2013-7-17,95,82,71,80,74,69,97,79,55,30.26,30.11,5,0,5,0.00
2013-7-18,92,81,74,78,75,72,97,83,60,30.15,30.03,4,0,4,0.00
2013-7-19,91,82,70,79,74,69,98,79,59,30.01,29.86,10,2,10,0.00
2013-7-20,92,81,72,79,74,69,96,82,59,29.90,29.76,12,2,12,0.01
2013-7-21,90,76,70,80,72,68,96,89,63,29.89,29.80,10,1,10,0.15
2013-7-22,90,78,71,80,75,70,98,89,68,29.84,29.75,9,3,9,0.72
2013-7-23,92,79,72,78,74,70,97,84,61,29.85,29.71,20,5,20,0.09
2013-7-24,83,74,66,70,66,61,97,79,56,29.94,29.79,13,1,13,0.01
2013-7-25,81,70,60,67,62,58,93,76,49,30.03,29.93,7,0,7,0.00
2013-7-26,83,71,58,70,65,57,97,83,55,30.02,29.91,8,1,8,0.01
2013-7-27,82,73,65,72,66,57,97,81,58,29.95,29.84,9,2,10,0.01
2013-7-28,81,67,53,65,58,51,96,75,48,30.02,29.93,7,1,7,0.00
2013-7-29,79,69,60,70,63,58,96,82,60,30.12,30.01,7,0,7,0.00
2013-7-30,74,70,66,72,68,63,97,92,81,30.10,29.97,8,1,8,0.28
2013-7-31,86,76,70,78,73,69,99,90,68,29.98,29.89,6,1,6,0.00
2013-8-1,86,76,66,73,68,64,97,80,53,30.01,29.93,7,1,8,0.00
2013-8-2,86,74,63,73,68,61,97,83,58,29.98,29.89,7,1,7,0.00
2013-8-3,85,76,70,77,72,68,96,89,74,30.01,29.86,9,1,9,0.02
2013-8-4,81,74,68,72,66,64,96,78,57,30.09,30.00,2,0,3,0.00
2013-8-5,73,69,65,69,66,63,96,89,79,30.03,29.87,5,0,4,0.30
2013-8-6,84,75,70,78,73,69,98,92,75,29.91,29.82,7,0,7,0.02
2013-8-7,83,75,70,78,72,69,98,93,80,29.91,29.80,12,1,12,0.23
2013-8-8,83,75,70,78,74,69,99,95,77,29.93,29.82,17,0,17,0.06
2013-8-9,82,76,73,77,74,72,99,93,81,29.98,29.85,4,0,4,0.03
2013-8-10,80,75,72,76,73,71,99,95,85,30.06,29.96,5,0,5,0.57
2013-8-11,88,78,71,78,74,70,98,87,65,30.07,29.98,7,0,7,0.00
2013-8-12,86,76,73,80,74,71,99,94,81,30.01,29.84,8,2,8,0.59
2013-8-13,82,76,67,75,70,64,99,83,61,30.00,29.86,7,1,7,0.00
2013-8-14,73,64,58,65,57,53,93,78,51,30.09,29.99,5,1,5,0.00
2013-8-15,76,65,55,62,57,53,93,76,51,30.08,29.99,4,0,4,0.00
2013-8-16,78,68,58,65,61,56,93,79,61,30.05,30.00,5,0,5,0.00
2013-8-17,78,68,65,70,64,61,97,89,74,30.10,30.01,8,1,8,0.67
2013-8-18,79,72,65,73,69,64,98,89,74,30.10,30.01,5,0,5,0.00
2013-8-19,86,73,63,73,68,62,99,85,59,30.07,29.97,5,0,5,0.00
2013-8-20,89,75,64,76,70,63,99,86,60,30.06,29.97,5,0,5,0.00
2013-8-21,89,78,67,78,72,66,99,84,59,30.09,29.99,7,1,7,0.00
2013-8-22,93,80,68,80,74,67,98,83,54,30.06,29.95,7,1,7,0.00
2013-8-23,89,79,70,79,74,69,98,86,67,30.02,29.94,7,0,7,0.00
2013-8-24,88,78,69,77,71,68,97,82,57,30.13,30.02,4,0,4,0.00
2013-8-25,90,78,67,80,73,65,96,83,64,30.20,30.12,9,1,9,0.00
2013-8-26,90,79,72,78,74,70,96,84,65,30.19,30.05,10,2,10,0.00
2013-8-27,90,79,71,78,73,69,96,83,65,30.07,29.96,12,3,12,0.00
2013-8-28,95,81,71,78,73,69,94,78,49,30.00,29.93,10,3,10,0.00
2013-8-29,97,83,72,79,74,69,93,77,50,29.98,29.89,7,2,7,0.00
2013-8-30,97,84,73,80,75,70,95,77,51,29.93,29.80,7,2,8,0.00
2013-8-31,96,85,76,81,76,73,92,77,56,29.83,29.70,9,3,9,0.00
2013-9-1,83,78,72,77,73,69,97,87,78,29.82,29.70,16,4,16,0.74
2013-9-2,87,77,69,78,71,65,98,83,58,29.87,29.77,12,1,12,0.00
2013-9-3,86,73,63,69,65,61,96,78,49,30.00,29.86,7,1,7,0.00
2013-9-4,84,71,60,68,63,58,97,78,49,30.10,30.00,6,0,6,0.00
2013-9-5,83,70,58,68,63,56,98,80,53,30.14,30.06,4,0,4,0.00
2013-9-6,88,75,64,72,67,63,97,78,52,30.12,30.00,4,0,4,0.00
2013-9-7,91,76,64,75,69,62,97,80,53,30.02,29.89,10,1,10,0.00
2013-9-8,90,78,67,77,72,65,97,82,60,29.93,29.84,7,0,7,0.00
2013-9-9,94,83,73,78,75,71,94,78,54,29.95,29.87,9,1,9,0.01
2013-9-10,93,82,75,79,74,69,91,79,52,30.07,29.95,4,0,5,0.00
2013-9-11,94,79,70,78,72,68,97,81,57,30.10,29.99,10,1,10,0.00
2013-9-12,90,78,67,76,72,63,94,80,58,30.00,29.88,10,2,10,0.00
2013-9-13,76,67,56,64,56,52,86,70,46,30.02,29.94,10,1,10,0.00
2013-9-14,74,61,50,55,51,48,94,72,42,30.10,30.00,8,0,8,0.00
2013-9-15,83,66,51,61,56,48,96,73,44,30.07,30.00,10,1,12,0.00
2013-9-16,74,68,61,66,62,58,91,83,72,30.15,30.03,6,1,6,0.00
2013-9-17,83,71,61,68,64,59,95,80,59,30.15,30.02,5,0,5,0.00
2013-9-18,89,76,67,74,70,63,92,80,55,30.06,29.94,9,2,9,0.00
2013-9-19,88,78,71,76,72,69,92,82,65,30.02,29.88,10,2,10,0.00
2013-9-20,75,72,68,73,69,66,97,91,81,29.90,29.77,10,2,10,0.57
2013-9-21,74,64,54,66,56,52,97,77,48,29.88,29.78,13,2,13,0.03
2013-9-22,75,62,51,57,53,49,95,74,47,29.95,29.86,4,0,4,0.00
2013-9-23,78,64,50,59,55,48,94,74,48,29.97,29.87,5,0,5,0.00
2013-9-24,77,65,58,69,62,56,97,90,76,29.90,29.76,8,1,8,0.10
2013-9-25,80,69,60,71,65,59,98,90,66,29.82,29.74,4,0,4,0.00
2013-9-26,83,70,62,71,64,60,98,83,55,29.96,29.81,4,0,4,0.00
2013-9-27,81,70,59,67,60,56,97,76,44,30.06,29.96,5,0,5,0.00
2013-9-28,82,72,63,64,61,59,90,72,46,30.07,29.96,8,1,9,0.00
2013-9-29,69,65,63,64,62,60,97,91,73,29.99,29.93,6,0,6,0.27
2013-9-30,68,66,64,66,65,63,98,96,92,29.95,29.90,6,0,6,0.00
2013-10-1,74,69,64,71,67,63,98,95,88,30.02,29.92,7,1,7,0.12
2013-10-2,80,72,68,75,70,68,99,95,79,30.03,29.96,14,1,14,0.02
2013-10-3,81,71,68,70,68,66,97,89,66,29.98,29.89,6,0,6,0.00
2013-10-4,86,75,68,75,71,67,96,87,67,29.99,29.90,12,1,12,0.00
2013-10-5,81,73,68,76,71,67,98,94,79,29.95,29.78,15,1,16,2.74
2013-10-6,69,60,50,67,54,46,98,81,54,29.92,29.78,22,5,22,0.26
2013-10-7,68,56,48,53,49,45,94,79,56,30.10,29.88,8,1,8,0.00
2013-10-8,70,58,47,53,49,46,97,75,44,30.17,30.07,4,0,7,0.00
2013-10-9,78,62,49,67,58,47,96,85,64,30.13,30.04,7,0,7,0.00
2013-10-10,79,66,59,68,62,58,99,87,60,30.11,29.97,6,0,6,0.00
2013-10-11,81,67,59,67,61,57,97,82,51,30.01,29.91,8,1,8,0.00
2013-10-12,72,65,61,69,63,58,97,91,84,30.10,29.94,8,0,8,0.17
2013-10-13,74,63,54,62,53,47,97,72,40,30.26,30.10,6,0,6,0.00
2013-10-14,73,62,51,61,54,45,87,77,62,30.24,30.03,0,0,1,0.00
2013-10-15,71,66,63,66,64,60,97,93,83,30.03,29.88,10,1,10,0.02
2013-10-16,67,58,49,66,53,48,97,85,67,29.99,29.87,12,1,12,0.00
2013-10-17,65,54,49,53,50,47,96,86,60,29.98,29.92,12,1,12,0.34
2013-10-18,69,56,46,55,50,45,98,82,50,30.03,29.90,9,1,9,0.01
2013-10-19,60,50,43,51,45,40,95,84,50,30.01,29.86,13,2,13,0.10
2013-10-20,65,51,41,48,44,39,96,80,50,30.04,29.94,13,2,13,0.01
2013-10-21,68,54,44,54,48,42,95,80,58,30.01,29.92,13,2,13,0.01
2013-10-22,62,49,36,48,41,34,97,76,48,30.03,29.81,16,1,20,0.03
2013-10-23,55,46,42,46,38,34,93,75,47,30.11,29.88,15,3,15,0.00
2013-10-24,52,44,34,41,36,28,92,73,41,30.38,30.08,17,2,17,0.00
2013-10-25,52,38,29,34,30,26,93,74,39,30.51,30.27,5,0,5,0.00
2013-10-26,59,47,33,47,39,30,90,75,56,30.27,30.03,17,3,17,0.00
2013-10-27,66,52,38,49,42,35,92,71,41,30.08,29.99,5,0,5,0.00
2013-10-28,71,56,43,55,49,41,96,80,54,30.19,30.01,8,0,8,0.00
2013-10-29,62,57,50,62,55,48,98,95,90,30.22,30.04,7,0,7,0.29
2013-10-30,75,68,62,67,64,62,98,88,74,30.08,29.89,17,3,17,0.05
2013-10-31,69,65,56,66,63,55,97,93,84,29.89,29.42,27,6,27,0.78
2013-11-1,68,56,50,55,50,44,97,80,49,29.82,29.64,20,5,20,0.00
2013-11-2,58,49,40,47,43,38,92,78,57,30.16,29.81,18,3,18,0.00
2013-11-3,58,46,34,47,37,33,98,75,43,30.29,30.15,5,0,5,0.00
2013-11-4,60,51,44,49,44,38,95,78,57,30.25,30.16,12,1,12,0.01
2013-11-5,64,58,51,54,48,45,93,71,59,30.28,30.08,10,2,10,0.00
2013-11-6,60,54,42,57,49,39,97,85,63,30.21,29.97,16,3,16,0.01
2013-11-7,55,43,36,39,36,32,94,78,44,30.37,30.21,9,1,9,0.00
2013-11-8,60,46,32,45,35,30,97,70,37,30.36,30.17,7,0,6,0.00
2013-11-9,63,52,43,47,42,36,84,71,52,30.20,30.10,20,4,20,0.00
2013-11-10,60,48,37,46,37,29,95,67,32,30.35,30.20,6,0,6,0.00
2013-11-11,64,51,37,46,37,31,84,61,38,30.28,30.11,13,2,13,0.00
2013-11-12,44,35,27,39,26,21,87,69,48,30.67,30.28,12,3,12,0.00
2013-11-13,47,33,21,27,22,18,93,67,39,30.69,30.38,7,1,7,0.00
2013-11-14,56,42,29,27,24,22,75,51,28,30.38,30.10,13,2,13,0.00
2013-11-15,52,48,43,50,38,24,94,70,41,30.11,29.98,6,0,6,0.00
2013-11-16,67,60,51,63,56,50,95,89,80,29.99,29.72,10,3,13,0.00
2013-11-17,74,66,56,70,55,30,96,72,34,29.92,29.48,39,9,39,0.57
2013-11-18,60,51,38,43,34,27,79,54,33,30.24,29.92,20,3,20,0.00
2013-11-19,48,41,36,32,30,29,78,66,51,30.30,30.17,4,0,4,0.00
2013-11-20,57,45,32,39,34,28,89,67,47,30.18,30.06,8,1,8,0.00
2013-11-21,59,54,50,56,49,37,95,81,60,30.17,30.09,9,1,9,0.17
2013-11-22,58,48,40,57,46,36,97,93,86,30.40,30.12,14,3,14,0.11
2013-11-23,41,34,24,36,22,15,88,64,39,30.63,30.38,11,4,11,0.00
2013-11-24,32,29,22,18,15,12,70,56,44,30.70,30.43,5,1,5,0.00
2013-11-25,37,33,29,31,23,18,91,67,52,30.44,30.20,9,1,9,0.01
2013-11-26,40,36,28,32,28,16,94,76,60,30.12,29.97,22,3,22,0.03
2013-11-27,32,25,19,16,12,9,79,58,42,30.36,30.12,20,5,20,0.00
2013-11-28,45,33,19,29,22,13,83,65,47,30.45,30.30,17,3,17,0.00
2013-11-29,52,39,25,34,29,23,91,70,46,30.56,30.39,5,0,5,0.00
2013-11-30,57,46,34,34,29,25,74,54,31,30.39,30.15,15,3,15,0.00
2013-12-1,58,48,41,44,38,29,89,68,52,30.15,29.87,7,1,7,0.00
2013-12-2,61,51,41,50,45,38,92,81,66,29.87,29.67,5,0,5,0.00
2013-12-3,64,54,48,55,50,46,97,87,65,29.72,29.64,7,0,7,0.00
2013-12-4,73,65,54,63,60,52,96,85,67,29.74,29.59,14,4,14,0.00
2013-12-5,66,40,29,62,36,27,93,85,72,30.19,29.74,13,4,13,0.03
2013-12-6,30,24,20,28,22,17,94,92,88,30.49,30.12,12,2,12,0.00
2013-12-7,23,18,13,17,14,9,88,82,75,30.64,30.38,9,2,9,0.00
2013-12-8,32,28,21,31,26,17,95,92,85,30.38,30.02,12,2,12,0.00
2013-12-9,32,28,25,29,24,18,95,83,70,30.28,30.10,9,1,9,0.05
2013-12-10,32,26,20,26,22,17,92,83,73,30.37,30.22,17,4,17,0.11
2013-12-11,37,28,20,30,23,14,94,82,63,30.61,30.34,15,2,15,0.19
2013-12-12,31,21,10,20,12,5,85,69,36,30.62,30.35,8,1,8,0.03
2013-12-13,41,32,22,32,25,18,90,74,52,30.35,29.96,8,1,8,0.29
2013-12-14,37,35,31,36,33,28,96,92,89,30.09,29.77,16,4,16,1.08
2013-12-15,33,31,30,31,28,26,93,87,82,30.22,30.08,15,5,15,0.01
2013-12-16,49,41,34,41,36,32,92,82,69,30.11,30.01,14,6,14,0.09
2013-12-17,46,38,30,38,32,27,93,79,56,30.28,30.05,8,1,8,0.01
2013-12-18,51,41,27,35,29,23,87,64,39,30.31,30.04,7,1,9,0.00
2013-12-19,59,51,44,52,43,35,79,73,67,30.05,29.86,16,5,16,0.00
2013-12-20,66,62,56,62,59,53,95,89,86,29.87,29.74,16,5,16,0.14
2013-12-21,63,50,38,62,49,38,99,97,91,29.74,29.41,23,2,23,4.87
2013-12-22,46,40,34,46,39,31,98,94,84,30.20,29.61,15,6,15,0.29
2013-12-23,36,31,26,31,25,19,88,78,67,30.49,30.20,15,2,15,0.00
2013-12-24,27,21,15,19,13,8,83,72,54,30.62,30.40,15,2,15,0.00
2013-12-25,42,36,23,31,28,16,90,73,58,30.41,30.26,16,5,16,0.00
2013-12-26,46,35,26,34,29,24,96,80,55,30.42,30.31,9,1,9,0.00
2013-12-27,53,40,29,38,33,27,92,78,56,30.43,30.30,9,1,9,0.00
2013-12-28,48,42,34,38,34,30,89,75,53,30.31,29.93,6,0,6,0.01
2013-12-29,47,38,27,42,34,21,97,86,72,30.20,29.88,16,4,16,0.12
2013-12-30,31,25,19,21,17,14,81,72,56,30.30,30.19,9,1,9,0.00
2013-12-31,44,32,23,30,24,18,91,74,51,30.43,30.25,10,2,10,0.00
2014-1-1,49,39,29,37,32,26,90,76,55,30.25,29.91,9,1,9,0.02
2014-1-2,42,26,17,37,20,11,92,77,62,30.45,29.90,24,6,24,0.01